Time;durP1;ratioP1;P1;durP2;ratioP2;P2;SDS_P1;SDS_P2;PMS_P1;PMS_P2;Temp;Humidity;BMP_temperature;BMP_pressure;BME280_temperature;BME280_humidity;BME280_pressure;Samples;Min_cycle;Max_cycle;Signal;HPM_P1;HPM_P2
2022/04/26 05:40:40;;;;;;;22.60;11.77;;;;;;;;;;5437257;23;20056;-83
2022/04/26 05:43:07;;;;;;;18.27;12.35;;;;;;;;;;4938622;28;20095;-86
2022/04/26 05:45:34;;;;;;;18.42;11.93;;;;;;;;;;4937980;28;20052;-82
2022/04/26 05:48:07;;;;;;;19.73;11.48;;;;;;;;;;4928423;28;20479;-82
2022/04/26 05:50:34;;;;;;;14.98;11.63;;;;;;;;;;4938578;28;20571;-83
2022/04/26 05:53:01;;;;;;;18.40;11.43;;;;;;;;;;4936199;28;20079;-83
2022/04/26 05:55:27;;;;;;;19.38;11.93;;;;;;;;;;4937710;28;20080;-83
2022/04/26 05:57:54;;;;;;;19.17;12.63;;;;;;;;;;4942583;28;20464;-85
2022/04/26 06:00:21;;;;;;;18.55;11.52;;;;;;;;;;4936728;28;20583;-85
2022/04/26 06:02:49;;;;;;;16.02;11.52;;;;;;;;;;4938339;28;20078;-87
2022/04/26 06:05:19;;;;;;;25.00;12.68;;;;;;;;;;4945439;28;20106;-85
2022/04/26 06:07:45;;;;;;;17.90;11.52;;;;;;;;;;4938163;28;20113;-84
2022/04/26 06:10:12;;;;;;;29.00;12.30;;;;;;;;;;4937461;28;20086;-83
2022/04/26 06:12:41;;;;;;;22.05;11.70;;;;;;;;;;4935203;28;20082;-86
2022/04/26 06:15:08;;;;;;;21.20;11.57;;;;;;;;;;4938327;28;20048;-86
2022/04/26 06:17:35;;;;;;;18.98;11.60;;;;;;;;;;4947773;28;20066;-91
2022/04/26 06:20:02;;;;;;;18.15;10.82;;;;;;;;;;4936091;28;20119;-84
2022/04/26 06:22:29;;;;;;;14.85;9.95;;;;;;;;;;4935755;28;20051;-85
2022/04/26 06:24:55;;;;;;;40.20;11.93;;;;;;;;;;4936628;28;20075;-81
2022/04/26 06:27:22;;;;;;;20.83;11.35;;;;;;;;;;4933068;28;20102;-87
2022/04/26 06:29:48;;;;;;;15.65;10.23;;;;;;;;;;4930165;28;20135;-86
2022/04/26 06:32:15;;;;;;;40.90;11.48;;;;;;;;;;4929102;28;20106;-85
2022/04/26 06:34:41;;;;;;;26.05;10.98;;;;;;;;;;4927742;28;20631;-87
2022/04/26 06:37:08;;;;;;;16.15;9.80;;;;;;;;;;4929584;28;20529;-86
2022/04/26 06:39:34;;;;;;;19.52;10.68;;;;;;;;;;4929097;28;20130;-87
2022/04/26 06:42:02;;;;;;;12.50;10.18;;;;;;;;;;4928049;28;20067;-87
2022/04/26 06:44:29;;;;;;;19.40;9.85;;;;;;;;;;4929521;28;20051;-88
2022/04/26 06:47:00;;;;;;;20.20;9.60;;;;;;;;;;4930188;28;20070;-86
2022/04/26 06:49:26;;;;;;;34.35;10.70;;;;;;;;;;4928183;28;20146;-85
2022/04/26 06:51:53;;;;;;;16.85;8.80;;;;;;;;;;4927889;28;20091;-86
2022/04/26 06:54:19;;;;;;;27.98;10.68;;;;;;;;;;4927600;28;20122;-84
2022/04/26 06:56:46;;;;;;;17.23;9.45;;;;;;;;;;4928676;28;20523;-86
2022/04/26 06:59:13;;;;;;;16.50;8.73;;;;;;;;;;4928174;28;20072;-87
2022/04/26 07:01:40;;;;;;;14.70;8.82;;;;;;;;;;4927863;28;20055;-86
2022/04/26 07:04:08;;;;;;;14.27;9.35;;;;;;;;;;4927710;28;20135;-87
2022/04/26 07:06:38;;;;;;;14.77;8.82;;;;;;;;;;4926939;28;20099;-86
2022/04/26 07:09:05;;;;;;;;;;;;;;;;;;4929320;28;20123;-83
2022/04/26 07:11:31;;;;;;;18.73;8.38;;;;;;;;;;4929487;28;19978;-87
2022/04/26 07:13:58;;;;;;;14.93;7.90;;;;;;;;;;4928883;28;20130;-87
2022/04/26 07:16:24;;;;;;;43.25;9.57;;;;;;;;;;4928815;28;20147;-88
2022/04/26 07:18:51;;;;;;;13.43;7.90;;;;;;;;;;4928827;28;20127;-87
2022/04/26 07:21:18;;;;;;;20.63;8.10;;;;;;;;;;4926490;28;20048;-87
2022/04/26 07:23:45;;;;;;;26.40;8.80;;;;;;;;;;4929901;28;20047;-87
2022/04/26 07:26:12;;;;;;;15.00;7.57;;;;;;;;;;4929554;28;20051;-86
2022/04/26 07:28:38;;;;;;;15.98;6.93;;;;;;;;;;4928432;28;20512;-88
2022/04/26 07:31:05;;;;;;;14.00;7.43;;;;;;;;;;4928089;28;20514;-87
2022/04/26 07:36:17;;;;;;;17.05;7.20;;;;;;;;;;4923755;28;20127;-86
2022/04/26 07:38:43;;;;;;;11.68;7.15;;;;;;;;;;4924997;28;20135;-85
2022/04/26 07:41:11;;;;;;;17.27;7.40;;;;;;;;;;4927751;28;20571;-86
2022/04/26 07:43:38;;;;;;;11.13;6.97;;;;;;;;;;4928432;28;20063;-83
2022/04/26 07:46:05;;;;;;;18.75;7.70;;;;;;;;;;4928077;28;20055;-84
2022/04/26 07:48:32;;;;;;;19.23;7.18;;;;;;;;;;4929031;28;20043;-86
2022/04/26 07:50:58;;;;;;;15.63;6.90;;;;;;;;;;4930000;28;20079;-86
2022/04/26 07:53:26;;;;;;;12.63;6.95;;;;;;;;;;4928151;28;20067;-85
2022/04/26 07:55:53;;;;;;;19.17;7.43;;;;;;;;;;4927323;28;20099;-84
2022/04/26 07:58:20;;;;;;;22.65;7.28;;;;;;;;;;4927252;28;20504;-83
2022/04/26 08:00:47;;;;;;;17.90;6.90;;;;;;;;;;4928113;28;20067;-86
2022/04/26 08:03:14;;;;;;;20.02;7.43;;;;;;;;;;4927449;28;20071;-85
2022/04/26 08:05:41;;;;;;;12.40;6.32;;;;;;;;;;4928493;28;20087;-87
2022/04/26 08:08:07;;;;;;;9.27;6.07;;;;;;;;;;4928300;28;20401;-88
2022/04/26 08:10:35;;;;;;;36.75;8.30;;;;;;;;;;4928385;28;20134;-84
2022/04/26 08:13:03;;;;;;;12.45;6.88;;;;;;;;;;4929471;28;20077;-84
2022/04/26 08:15:29;;;;;;;14.02;6.40;;;;;;;;;;4929567;28;20040;-84
2022/04/26 08:17:56;;;;;;;14.80;7.10;;;;;;;;;;4932730;28;20158;-88
2022/04/26 08:20:24;;;;;;;12.30;6.60;;;;;;;;;;4933916;28;20059;-93
2022/04/26 08:22:51;;;;;;;18.33;7.13;;;;;;;;;;4932269;28;20134;-85
2022/04/26 08:28:03;;;;;;;20.80;6.50;;;;;;;;;;4935013;28;20048;-87
2022/04/26 08:30:30;;;;;;;34.45;6.82;;;;;;;;;;4932808;28;20082;-85
2022/04/26 08:32:56;;;;;;;15.65;6.75;;;;;;;;;;4936477;28;20113;-82
2022/04/26 08:35:27;;;;;;;21.23;7.25;;;;;;;;;;4948866;28;20528;-83
2022/04/26 08:38:14;;;;;;;17.10;6.53;;;;;;;;;;4935735;28;20047;-87
2022/04/26 08:40:44;;;;;;;15.43;6.60;;;;;;;;;;4932198;28;20083;-86
2022/04/26 08:43:11;;;;;;;16.27;6.72;;;;;;;;;;4932101;28;20094;-81
2022/04/26 08:45:38;;;;;;;16.27;6.40;;;;;;;;;;4949552;28;20067;-85
2022/04/26 08:51:05;;;;;;;11.85;6.00;;;;;;;;;;4933996;28;20052;-87
2022/04/26 08:53:33;;;;;;;14.15;5.93;;;;;;;;;;4937132;28;20044;-87
2022/04/26 08:56:04;;;;;;;17.73;6.55;;;;;;;;;;4931365;28;20044;-86
2022/04/26 08:58:32;;;;;;;16.25;6.47;;;;;;;;;;4929615;28;20066;-87
2022/04/26 09:01:10;;;;;;;13.63;6.20;;;;;;;;;;4923898;28;20051;-88
2022/04/26 09:03:41;;;;;;;23.88;6.78;;;;;;;;;;4927452;28;20055;-87
2022/04/26 09:06:12;;;;;;;32.78;6.63;;;;;;;;;;4928049;28;20465;-87
2022/04/26 09:08:40;;;;;;;12.50;5.47;;;;;;;;;;4932589;28;20186;-86
2022/04/26 09:11:39;;;;;;;23.85;6.38;;;;;;;;;;4929443;28;20044;-87
2022/04/26 09:14:09;;;;;;;15.95;5.35;;;;;;;;;;4913874;29;20072;-86
2022/04/26 09:16:36;;;;;;;33.22;6.07;;;;;;;;;;4913527;29;20055;-87
2022/04/26 09:19:06;;;;;;;25.30;7.60;;;;;;;;;;4911501;29;20048;-84
2022/04/26 09:21:35;;;;;;;17.05;11.38;;;;;;;;;;4914504;29;20047;-85
2022/04/26 09:24:08;;;;;;;16.27;7.43;;;;;;;;;;4915134;29;20163;-84
2022/04/26 09:26:36;;;;;;;11.48;5.20;;;;;;;;;;4914683;29;20084;-85
2022/04/26 09:29:05;;;;;;;13.53;5.90;;;;;;;;;;4912477;29;20508;-81
2022/04/26 09:31:33;;;;;;;15.80;5.25;;;;;;;;;;4911781;29;20300;-85
2022/04/26 09:34:05;;;;;;;18.75;5.75;;;;;;;;;;4911471;29;20048;-84
2022/04/26 09:36:42;;;;;;;15.18;5.60;;;;;;;;;;4910495;29;20138;-84
2022/04/26 09:39:09;;;;;;;13.15;4.65;;;;;;;;;;4914101;29;20068;-84
2022/04/26 09:41:37;;;;;;;32.20;6.57;;;;;;;;;;4913396;29;20480;-84
2022/04/26 09:44:05;;;;;;;19.25;5.15;;;;;;;;;;4913018;29;20052;-83
2022/04/26 09:46:40;;;;;;;11.45;4.78;;;;;;;;;;4913663;29;20124;-85
2022/04/26 09:49:10;;;;;;;20.40;5.18;;;;;;;;;;4916794;28;20079;-86
2022/04/26 09:51:37;;;;;;;21.92;5.65;;;;;;;;;;4937484;28;20086;-85
2022/04/26 09:54:05;;;;;;;12.55;4.13;;;;;;;;;;4919798;28;20044;-81
2022/04/26 09:56:32;;;;;;;19.88;5.57;;;;;;;;;;4930840;28;20131;-85
2022/04/26 09:59:01;;;;;;;10.82;5.55;;;;;;;;;;4934890;28;20080;-85
2022/04/26 10:01:30;;;;;;;;;;;;;;;;;;4934757;28;20118;-86
2022/04/26 10:04:02;;;;;;;15.20;5.35;;;;;;;;;;4934226;28;19922;-88
2022/04/26 10:06:37;;;;;;;9.25;5.28;;;;;;;;;;4933815;28;20079;-85
2022/04/26 10:09:06;;;;;;;7.43;4.28;;;;;;;;;;4926332;28;20067;-81
2022/04/26 10:11:32;;;;;;;8.50;4.15;;;;;;;;;;4930759;28;20477;-86
2022/04/26 10:14:02;;;;;;;9.25;4.40;;;;;;;;;;4934406;28;20074;-85
2022/04/26 10:16:30;;;;;;;8.43;4.55;;;;;;;;;;4931018;28;20075;-86
2022/04/26 10:19:02;;;;;;;14.07;4.30;;;;;;;;;;4929749;28;20059;-84
2022/04/26 10:21:29;;;;;;;12.15;4.95;;;;;;;;;;4929478;28;20135;-86
2022/04/26 10:24:01;;;;;;;13.95;5.78;;;;;;;;;;4929964;28;20115;-85
2022/04/26 10:26:28;;;;;;;9.43;5.22;;;;;;;;;;4929662;28;20075;-86
2022/04/26 10:29:00;;;;;;;8.60;4.63;;;;;;;;;;4929517;28;20650;-85
2022/04/26 10:31:48;;;;;;;10.85;5.03;;;;;;;;;;4929828;28;20095;-85
2022/04/26 10:34:23;;;;;;;9.48;3.90;;;;;;;;;;4930892;28;20058;-86
2022/04/26 10:36:51;;;;;;;10.95;4.78;;;;;;;;;;4931507;28;20051;-86
2022/04/26 10:39:25;;;;;;;4.60;3.35;;;;;;;;;;4930572;28;20553;-86
2022/04/26 10:41:53;;;;;;;7.07;4.22;;;;;;;;;;4944019;28;20081;-85
2022/04/26 10:44:21;;;;;;;6.70;4.25;;;;;;;;;;4931106;28;20111;-85
2022/04/26 10:46:59;;;;;;;8.75;4.35;;;;;;;;;;4929592;28;20048;-84
2022/04/26 10:49:40;;;;;;;11.48;4.68;;;;;;;;;;4928277;28;20126;-85
2022/04/26 10:54:45;;;;;;;13.50;4.40;;;;;;;;;;4924932;28;20055;-84
2022/04/26 10:57:15;;;;;;;6.55;3.75;;;;;;;;;;4928790;28;20517;-83
2022/04/26 10:59:43;;;;;;;13.10;4.60;;;;;;;;;;4932864;28;20082;-84
2022/04/26 11:02:17;;;;;;;6.70;3.83;;;;;;;;;;4931967;28;20086;-84
2022/04/26 11:04:45;;;;;;;7.10;4.25;;;;;;;;;;4932657;28;20106;-83
2022/04/26 11:07:18;;;;;;;7.20;4.40;;;;;;;;;;4932343;28;20168;-83
2022/04/26 11:09:49;;;;;;;5.68;4.10;;;;;;;;;;4933100;28;20413;-84
2022/04/26 11:12:21;;;;;;;6.72;4.15;;;;;;;;;;4932517;28;20098;-85
2022/04/26 11:14:50;;;;;;;9.40;4.82;;;;;;;;;;4932976;28;20477;-85
2022/04/26 11:17:18;;;;;;;5.78;3.95;;;;;;;;;;4930805;28;20150;-84
2022/04/26 11:19:55;;;;;;;6.82;4.00;;;;;;;;;;4932363;28;20055;-83
2022/04/26 11:22:23;;;;;;;11.57;5.00;;;;;;;;;;4931172;28;20044;-83
2022/04/26 11:27:59;;;;;;;9.65;4.85;;;;;;;;;;4925153;28;20490;-84
2022/04/26 11:30:39;;;;;;;6.88;4.50;;;;;;;;;;4923478;28;20146;-84
2022/04/26 11:33:09;;;;;;;7.50;4.80;;;;;;;;;;4927576;28;20122;-84
2022/04/26 11:35:36;;;;;;;8.23;4.03;;;;;;;;;;4920355;28;20103;-84
2022/04/26 11:38:14;;;;;;;7.68;4.07;;;;;;;;;;4927883;28;20071;-84
2022/04/26 11:41:01;;;;;;;9.75;4.68;;;;;;;;;;4925033;28;20043;-83
2022/04/26 11:43:31;;;;;;;7.53;4.15;;;;;;;;;;4927877;28;20130;-83
2022/04/26 11:45:58;;;;;;;7.97;4.65;;;;;;;;;;4927271;28;20061;-83
2022/04/26 11:48:29;;;;;;;7.78;3.80;;;;;;;;;;4918842;28;20043;-84
2022/04/26 11:51:00;;;;;;;6.13;4.50;;;;;;;;;;4915382;28;20055;-85
2022/04/26 11:53:29;;;;;;;6.50;4.32;;;;;;;;;;4918105;28;20071;-85
2022/04/26 11:56:01;;;;;;;10.27;4.57;;;;;;;;;;4925355;28;20205;-85
2022/04/26 11:58:28;;;;;;;8.32;4.22;;;;;;;;;;4924078;28;20060;-86
2022/04/26 12:01:02;;;;;;;10.30;4.22;;;;;;;;;;4940666;28;20151;-83
2022/04/26 12:03:33;;;;;;;6.40;4.35;;;;;;;;;;4930433;28;20070;-85
2022/04/26 12:06:05;;;;;;;9.77;4.85;;;;;;;;;;4917106;28;20059;-86
2022/04/26 12:08:39;;;;;;;6.53;4.22;;;;;;;;;;4923383;28;20059;-84
2022/04/26 12:11:21;;;;;;;6.93;5.05;;;;;;;;;;4941512;28;20058;-86
2022/04/26 12:14:07;;;;;;;8.85;4.50;;;;;;;;;;4930401;28;20051;-85
2022/04/26 12:16:40;;;;;;;6.72;4.00;;;;;;;;;;4923502;28;20074;-85
2022/04/26 12:19:08;;;;;;;8.40;4.80;;;;;;;;;;4926965;28;20040;-84
2022/04/26 12:21:56;;;;;;;13.00;4.57;;;;;;;;;;4927835;28;20538;-86
2022/04/26 12:24:29;;;;;;;6.45;4.00;;;;;;;;;;4925440;28;20682;-85
2022/04/26 12:26:55;;;;;;;7.90;3.95;;;;;;;;;;4928005;28;20062;-85
2022/04/26 12:29:25;;;;;;;5.53;3.20;;;;;;;;;;4927160;28;20059;-85
2022/04/26 12:31:52;;;;;;;8.00;4.20;;;;;;;;;;4927394;28;20090;-84
2022/04/26 12:34:21;;;;;;;12.55;4.03;;;;;;;;;;4927194;28;20083;-85
2022/04/26 12:36:58;;;;;;;6.05;3.67;;;;;;;;;;4927821;28;20051;-85
2022/04/26 12:39:28;;;;;;;8.25;3.55;;;;;;;;;;4927070;28;20119;-84
2022/04/26 12:41:56;;;;;;;6.43;3.40;;;;;;;;;;4931924;28;20056;-85
2022/04/26 12:44:24;;;;;;;9.05;4.25;;;;;;;;;;4931799;28;20051;-84
2022/04/26 12:52:53;;;;;;;5.85;3.40;;;;;;;;;;4910090;29;20496;-85
2022/04/26 12:55:37;;;;;;;5.45;3.40;;;;;;;;;;4910514;29;20514;-84
2022/04/26 12:58:05;;;;;;;5.18;3.15;;;;;;;;;;4908703;29;20171;-82
2022/04/26 13:00:33;;;;;;;5.53;3.22;;;;;;;;;;4909251;29;20537;-84
2022/04/26 13:03:02;;;;;;;5.18;3.42;;;;;;;;;;4909336;29;20063;-84
2022/04/26 13:05:40;;;;;;;9.60;3.95;;;;;;;;;;4909715;29;20199;-84
2022/04/26 13:08:08;;;;;;;4.90;3.22;;;;;;;;;;4909193;29;20479;-85
2022/04/26 13:10:35;;;;;;;5.80;3.38;;;;;;;;;;4908331;29;20133;-84
2022/04/26 13:13:02;;;;;;;8.25;3.78;;;;;;;;;;4909195;29;20134;-86
2022/04/26 13:15:29;;;;;;;6.55;3.50;;;;;;;;;;4910598;29;20052;-85
2022/04/26 13:17:57;;;;;;;8.50;3.83;;;;;;;;;;4910050;29;20048;-83
2022/04/26 13:20:24;;;;;;;9.52;3.50;;;;;;;;;;4908584;29;20535;-84
2022/04/26 13:22:51;;;;;;;8.50;3.55;;;;;;;;;;4909217;29;20048;-84
2022/04/26 13:25:18;;;;;;;6.88;3.28;;;;;;;;;;4916455;28;20078;-86
2022/04/26 13:27:48;;;;;;;10.10;3.22;;;;;;;;;;4930155;28;20055;-85
2022/04/26 13:30:16;;;;;;;5.57;3.58;;;;;;;;;;4930037;28;20096;-85
2022/04/26 13:32:43;;;;;;;7.15;3.05;;;;;;;;;;4930084;28;20131;-84
2022/04/26 13:35:10;;;;;;;6.72;3.50;;;;;;;;;;4930310;28;20039;-85
2022/04/26 13:37:38;;;;;;;6.97;3.53;;;;;;;;;;4930365;28;20158;-85
2022/04/26 13:40:08;;;;;;;7.00;3.67;;;;;;;;;;4928747;28;20056;-82
2022/04/26 13:42:35;;;;;;;6.35;2.97;;;;;;;;;;4930297;28;20198;-85
2022/04/26 13:45:03;;;;;;;5.40;2.47;;;;;;;;;;4929785;28;20051;-85
2022/04/26 13:47:30;;;;;;;4.90;3.10;;;;;;;;;;4926904;28;20072;-82
2022/04/26 13:49:57;;;;;;;9.45;3.63;;;;;;;;;;4930144;28;20059;-85
2022/04/26 13:52:24;;;;;;;14.55;3.25;;;;;;;;;;4928903;28;20056;-85
2022/04/26 13:54:51;;;;;;;7.65;2.92;;;;;;;;;;4929890;28;20138;-84
2022/04/26 13:57:18;;;;;;;10.90;3.00;;;;;;;;;;4929555;28;20127;-86
2022/04/26 13:59:45;;;;;;;4.45;2.90;;;;;;;;;;4930078;28;20052;-85
2022/04/26 14:02:12;;;;;;;4.43;2.70;;;;;;;;;;4929097;28;20058;-84
2022/04/26 14:04:39;;;;;;;6.80;3.00;;;;;;;;;;4921838;28;20568;-84
2022/04/26 14:07:06;;;;;;;5.35;3.08;;;;;;;;;;4923873;28;20611;-84
2022/04/26 14:09:33;;;;;;;5.43;2.88;;;;;;;;;;4927622;28;20135;-84
2022/04/26 14:12:01;;;;;;;5.17;2.90;;;;;;;;;;4929178;28;20056;-85
2022/04/26 14:22:45;;;;;;;5.28;2.80;;;;;;;;;;4929189;28;20051;-82
2022/04/26 14:25:13;;;;;;;3.65;2.75;;;;;;;;;;4929484;28;20135;-84
2022/04/26 14:27:42;;;;;;;6.18;2.55;;;;;;;;;;4929507;28;20513;-85
2022/04/26 14:30:11;;;;;;;5.28;3.00;;;;;;;;;;4929105;28;20674;-85
2022/04/26 14:32:58;;;;;;;5.68;2.47;;;;;;;;;;4929325;28;20518;-85
2022/04/26 14:35:27;;;;;;;6.68;2.70;;;;;;;;;;4911729;28;20114;-84
2022/04/26 14:37:54;;;;;;;8.18;3.00;;;;;;;;;;4925553;28;20058;-84
2022/04/26 14:40:20;;;;;;;5.45;2.85;;;;;;;;;;4927308;28;20059;-84
2022/04/26 14:42:47;;;;;;;4.15;2.60;;;;;;;;;;4927434;28;20063;-82
2022/04/26 14:45:14;;;;;;;5.22;3.00;;;;;;;;;;4928445;28;20504;-81
2022/04/26 14:47:40;;;;;;;5.07;3.03;;;;;;;;;;4928904;28;20086;-82
2022/04/26 14:50:09;;;;;;;5.05;3.03;;;;;;;;;;4928796;28;20123;-81
2022/04/26 14:52:37;;;;;;;16.67;3.40;;;;;;;;;;4928511;28;20123;-82
2022/04/26 14:55:07;;;;;;;6.43;3.20;;;;;;;;;;4928462;28;20271;-82
2022/04/26 14:57:35;;;;;;;6.97;3.00;;;;;;;;;;4932260;28;20047;-82
2022/04/26 15:00:07;;;;;;;6.75;3.10;;;;;;;;;;4933503;28;20064;-82
2022/04/26 15:02:40;;;;;;;5.72;3.10;;;;;;;;;;4930413;28;20051;-82
2022/04/26 15:05:08;;;;;;;8.13;3.05;;;;;;;;;;4933126;28;20078;-82
2022/04/26 15:09:42;;;;;;;5.53;3.27;;;;;;;;;;4932893;28;20047;-81
2022/04/26 15:10:24;;;;;;;5.40;3.50;;;;;;;;;;4930046;28;20048;-83
2022/04/26 15:18:21;;;;;;;7.18;3.28;;;;;;;;;;4915895;28;20075;-82
2022/04/26 15:20:52;;;;;;;5.95;3.60;;;;;;;;;;4934963;28;20070;-81
2022/04/26 15:23:19;;;;;;;5.75;3.85;;;;;;;;;;4928527;28;20051;-82
2022/04/26 15:25:50;;;;;;;3.57;3.23;;;;;;;;;;4935525;28;20078;-80
2022/04/26 15:28:19;;;;;;;11.30;4.00;;;;;;;;;;4932836;28;20367;-81
2022/04/26 15:30:45;;;;;;;13.50;3.85;;;;;;;;;;4933703;28;20067;-81
2022/04/26 15:33:12;;;;;;;7.70;3.25;;;;;;;;;;4934597;28;20126;-81
2022/04/26 15:35:39;;;;;;;6.88;3.08;;;;;;;;;;4933259;28;20056;-81
2022/04/26 15:38:10;;;;;;;4.95;3.22;;;;;;;;;;4926764;28;20043;-81
2022/04/26 15:40:38;;;;;;;5.35;3.00;;;;;;;;;;4928253;28;20485;-81
2022/04/26 15:43:05;;;;;;;5.60;2.50;;;;;;;;;;4928328;28;20135;-81
2022/04/26 15:45:32;;;;;;;8.75;2.90;;;;;;;;;;4928510;29;20082;-80
2022/04/26 15:48:00;;;;;;;7.10;3.00;;;;;;;;;;4930743;28;20215;-81
2022/04/26 15:50:28;;;;;;;4.75;2.60;;;;;;;;;;4929263;28;20452;-81
2022/04/26 15:52:55;;;;;;;5.57;3.05;;;;;;;;;;4929388;28;20078;-82
2022/04/26 15:55:22;;;;;;;6.57;3.10;;;;;;;;;;4928598;28;20052;-81
2022/04/26 15:57:51;;;;;;;5.97;3.00;;;;;;;;;;4922785;28;20138;-82
2022/04/26 16:00:20;;;;;;;11.98;3.50;;;;;;;;;;4916932;28;20055;-80
2022/04/26 16:02:48;;;;;;;7.28;3.10;;;;;;;;;;4917984;28;20067;-81
2022/04/26 16:05:15;;;;;;;4.97;2.60;;;;;;;;;;4928334;28;20079;-81
2022/04/26 16:07:42;;;;;;;6.53;2.63;;;;;;;;;;4928653;28;20083;-82
2022/04/26 16:21:10;;;;;;;7.47;3.33;;;;;;;;;;4923783;28;20162;-81
2022/04/26 16:23:36;;;;;;;4.55;2.90;;;;;;;;;;4930595;28;20082;-81
2022/04/26 16:26:05;;;;;;;5.40;2.63;;;;;;;;;;4928081;28;20105;-80
2022/04/26 16:28:34;;;;;;;7.28;2.90;;;;;;;;;;4927958;28;20054;-81
2022/04/26 16:31:00;;;;;;;6.72;3.00;;;;;;;;;;4927778;28;20107;-81
2022/04/26 16:33:27;;;;;;;4.32;2.83;;;;;;;;;;4926666;28;20055;-81
2022/04/26 16:35:54;;;;;;;8.32;2.88;;;;;;;;;;4928216;28;20079;-82
2022/04/26 16:38:21;;;;;;;6.20;2.67;;;;;;;;;;4928541;28;20087;-82
2022/04/26 16:40:48;;;;;;;5.55;2.80;;;;;;;;;;4929503;28;20047;-82
2022/04/26 16:43:16;;;;;;;6.35;2.63;;;;;;;;;;4927447;28;20183;-82
2022/04/26 16:45:44;;;;;;;4.80;2.60;;;;;;;;;;4927746;28;20524;-82
2022/04/26 16:48:10;;;;;;;5.68;3.40;;;;;;;;;;4935906;28;20115;-82
2022/04/26 16:50:37;;;;;;;6.30;2.97;;;;;;;;;;4928241;28;20071;-82
2022/04/26 16:53:04;;;;;;;10.35;3.00;;;;;;;;;;4927530;28;20055;-83
2022/04/26 16:55:32;;;;;;;7.10;3.47;;;;;;;;;;4926365;28;20079;-82
2022/04/26 16:58:01;;;;;;;5.90;3.60;;;;;;;;;;4926116;28;20067;-82
2022/04/26 17:00:28;;;;;;;7.28;3.50;;;;;;;;;;4927045;28;20283;-81
2022/04/26 17:02:56;;;;;;;7.72;3.15;;;;;;;;;;4927105;28;20107;-82
2022/04/26 17:05:23;;;;;;;5.87;3.00;;;;;;;;;;4923480;28;20136;-81
2022/04/26 17:07:50;;;;;;;7.63;2.83;;;;;;;;;;4926920;28;20130;-81
2022/04/26 17:10:18;;;;;;;4.90;2.88;;;;;;;;;;4919756;28;20052;-82
2022/04/26 17:12:48;;;;;;;4.70;2.47;;;;;;;;;;4917866;28;20111;-81
2022/04/26 17:15:16;;;;;;;5.45;2.75;;;;;;;;;;4918749;28;20051;-82
2022/04/26 17:17:47;;;;;;;6.50;3.00;;;;;;;;;;4924909;28;20058;-83
2022/04/26 17:20:16;;;;;;;5.28;2.42;;;;;;;;;;4927967;28;20465;-80
2022/04/26 17:22:44;;;;;;;10.77;3.00;;;;;;;;;;4925700;28;20091;-81
2022/04/26 17:25:14;;;;;;;6.60;2.90;;;;;;;;;;4927500;28;20079;-81
2022/04/26 17:28:05;;;;;;;6.18;3.28;;;;;;;;;;4930999;28;20052;-80
2022/04/26 17:30:31;;;;;;;5.70;2.63;;;;;;;;;;4929586;28;20135;-81
2022/04/26 17:32:58;;;;;;;6.68;3.30;;;;;;;;;;4929794;28;20137;-80
2022/04/26 17:35:25;;;;;;;8.90;2.90;;;;;;;;;;4933298;28;20055;-80
2022/04/26 17:37:57;;;;;;;5.53;3.20;;;;;;;;;;4931238;28;20047;-82
2022/04/26 17:40:23;;;;;;;4.55;2.72;;;;;;;;;;4932285;28;20059;-82
2022/04/26 17:42:50;;;;;;;4.97;2.83;;;;;;;;;;4932736;28;20079;-82
2022/04/26 17:45:16;;;;;;;4.97;2.50;;;;;;;;;;4931326;28;20079;-81
2022/04/26 17:47:43;;;;;;;7.43;2.70;;;;;;;;;;4935905;28;20078;-79
2022/04/26 17:50:10;;;;;;;6.75;2.70;;;;;;;;;;4950355;28;20070;-81
2022/04/26 17:58:09;;;;;;;8.10;3.38;;;;;;;;;;4927026;28;20071;-81
2022/04/26 18:00:36;;;;;;;6.40;2.90;;;;;;;;;;4926352;28;20090;-81
2022/04/26 18:03:03;;;;;;;5.90;2.78;;;;;;;;;;4932652;28;20505;-81
2022/04/26 18:05:30;;;;;;;5.47;2.55;;;;;;;;;;4931277;28;21170;-81
2022/04/26 18:07:57;;;;;;;8.88;3.00;;;;;;;;;;4933766;28;20059;-82
2022/04/26 18:10:26;;;;;;;4.00;2.47;;;;;;;;;;4922974;28;20473;-80
2022/04/26 18:12:53;;;;;;;5.60;2.30;;;;;;;;;;4930255;28;20085;-80
2022/04/26 18:15:20;;;;;;;3.80;2.20;;;;;;;;;;4930918;28;20094;-81
2022/04/26 18:17:48;;;;;;;8.50;2.85;;;;;;;;;;4933394;28;20087;-81
2022/04/26 18:20:19;;;;;;;9.88;3.78;;;;;;;;;;4920771;28;20476;-81
2022/04/26 18:22:45;;;;;;;7.78;3.58;;;;;;;;;;4917124;28;20084;-79
2022/04/26 18:25:12;;;;;;;6.10;3.25;;;;;;;;;;4922581;28;20131;-81
2022/04/26 18:27:39;;;;;;;5.75;3.00;;;;;;;;;;4930302;28;20097;-81
2022/04/26 18:30:07;;;;;;;7.65;3.45;;;;;;;;;;4927392;28;20071;-81
2022/04/26 18:32:34;;;;;;;21.55;7.22;;;;;;;;;;4920309;28;20128;-80
2022/04/26 18:35:00;;;;;;;25.73;15.45;;;;;;;;;;4919632;28;20166;-82
2022/04/26 18:37:27;;;;;;;20.65;15.85;;;;;;;;;;4917926;28;20537;-80
2022/04/26 18:39:53;;;;;;;23.60;16.52;;;;;;;;;;4920697;28;20076;-80
2022/04/26 18:42:20;;;;;;;23.63;15.55;;;;;;;;;;4917440;28;20142;-79
2022/04/26 18:44:47;;;;;;;25.75;15.77;;;;;;;;;;4926867;28;20079;-80
2022/04/26 18:47:13;;;;;;;22.77;12.70;;;;;;;;;;4936274;28;20048;-79
2022/04/26 18:49:43;;;;;;;13.60;7.40;;;;;;;;;;4933708;28;20075;-81
2022/04/26 18:52:10;;;;;;;7.25;4.57;;;;;;;;;;4930511;28;20142;-79
2022/04/26 18:54:37;;;;;;;10.27;4.22;;;;;;;;;;4928368;28;20520;-80
2022/04/26 18:57:23;;;;;;;9.27;3.28;;;;;;;;;;4925759;28;20158;-81
2022/04/26 18:59:49;;;;;;;7.53;3.75;;;;;;;;;;4935532;28;20079;-80
2022/04/26 19:02:18;;;;;;;11.73;8.05;;;;;;;;;;4934830;28;20105;-81
2022/04/26 19:04:45;;;;;;;12.85;6.20;;;;;;;;;;4929188;28;20047;-80
2022/04/26 19:07:12;;;;;;;9.15;5.25;;;;;;;;;;4932000;28;20492;-80
2022/04/26 19:12:15;;;;;;;10.80;4.78;;;;;;;;;;4931849;28;20130;-79
2022/04/26 19:12:25;;;;;;;10.70;5.85;;;;;;;;;;4927470;28;20079;-80
2022/04/26 19:14:51;;;;;;;13.77;8.50;;;;;;;;;;4935224;28;20167;-80
2022/04/26 19:17:20;;;;;;;12.95;9.70;;;;;;;;;;4933149;28;20083;-80
2022/04/26 19:19:47;;;;;;;17.58;10.43;;;;;;;;;;4934597;28;20484;-79
2022/04/26 19:22:16;;;;;;;30.52;11.63;;;;;;;;;;4928552;28;20103;-80
2022/04/26 19:24:42;;;;;;;24.92;11.90;;;;;;;;;;4930649;28;20697;-80
2022/04/26 19:27:09;;;;;;;21.98;12.95;;;;;;;;;;4932074;28;20090;-79
2022/04/26 19:29:36;;;;;;;22.08;11.95;;;;;;;;;;4918544;28;20071;-80
2022/04/26 19:32:02;;;;;;;22.55;12.75;;;;;;;;;;4920311;28;20146;-79
2022/04/26 19:34:29;;;;;;;22.80;12.15;;;;;;;;;;4919290;28;20449;-80
2022/04/26 19:36:56;;;;;;;19.75;12.35;;;;;;;;;;4918386;28;20615;-80
2022/04/26 19:39:23;;;;;;;18.58;12.63;;;;;;;;;;4927665;28;20155;-79
2022/04/26 19:41:49;;;;;;;22.35;12.68;;;;;;;;;;4928471;28;20051;-79
2022/04/26 19:44:16;;;;;;;21.33;12.10;;;;;;;;;;4917516;28;20072;-79
2022/04/26 19:46:43;;;;;;;22.55;12.02;;;;;;;;;;4920004;28;20138;-79
2022/04/26 19:49:09;;;;;;;22.98;13.32;;;;;;;;;;4919534;28;20082;-78
2022/04/26 19:51:37;;;;;;;19.95;12.75;;;;;;;;;;4917035;28;20131;-78
2022/04/26 19:54:04;;;;;;;22.50;12.77;;;;;;;;;;4924519;28;20095;-79
2022/04/26 19:56:30;;;;;;;19.52;12.80;;;;;;;;;;4927081;28;20577;-80
2022/04/26 19:58:58;;;;;;;21.23;12.73;;;;;;;;;;4921435;28;20858;-78
2022/04/26 20:01:24;;;;;;;20.38;13.38;;;;;;;;;;4916009;28;20111;-79
2022/04/26 20:04:12;;;;;;;19.92;12.27;;;;;;;;;;4917975;28;20048;-80
2022/04/26 20:06:39;;;;;;;22.38;12.75;;;;;;;;;;4924578;28;20128;-79
2022/04/26 20:09:05;;;;;;;25.95;13.35;;;;;;;;;;4930513;28;20126;-80
2022/04/26 20:11:32;;;;;;;23.10;13.30;;;;;;;;;;4929331;28;20118;-81
2022/04/26 20:13:59;;;;;;;19.13;13.23;;;;;;;;;;4928928;28;20155;-80
2022/04/26 20:16:27;;;;;;;23.55;12.98;;;;;;;;;;4921071;28;20079;-81
2022/04/26 20:18:54;;;;;;;21.98;13.00;;;;;;;;;;4926492;28;20138;-81
2022/04/26 20:21:20;;;;;;;27.08;13.40;;;;;;;;;;4924142;28;20139;-81
2022/04/26 20:23:47;;;;;;;23.52;12.77;;;;;;;;;;4915570;28;20087;-81
2022/04/26 20:31:43;;;;;;;24.10;13.48;;;;;;;;;;4927637;28;20063;-81
2022/04/26 20:34:13;;;;;;;27.63;13.45;;;;;;;;;;4931786;28;20050;-80
2022/04/26 20:36:40;;;;;;;26.52;13.07;;;;;;;;;;4927902;28;20472;-80
2022/04/26 20:39:07;;;;;;;18.95;12.68;;;;;;;;;;4927909;28;20070;-80
2022/04/26 20:41:33;;;;;;;21.45;13.02;;;;;;;;;;4933095;28;20127;-80
2022/04/26 20:44:02;;;;;;;24.55;13.35;;;;;;;;;;4927596;28;20059;-80
2022/04/26 20:46:28;;;;;;;20.02;11.73;;;;;;;;;;4934227;28;20099;-81
2022/04/26 20:48:55;;;;;;;17.00;11.93;;;;;;;;;;4924502;28;20138;-81
2022/04/26 20:51:22;;;;;;;20.33;11.93;;;;;;;;;;4933403;28;20388;-80
2022/04/26 20:53:48;;;;;;;21.35;11.30;;;;;;;;;;4920373;28;20128;-80
2022/04/26 20:56:15;;;;;;;21.52;12.00;;;;;;;;;;4929600;28;20075;-80
2022/04/26 20:58:41;;;;;;;17.63;11.25;;;;;;;;;;4933484;28;20048;-81
2022/04/26 21:01:08;;;;;;;20.00;11.57;;;;;;;;;;4931824;28;20076;-79
2022/04/26 21:03:35;;;;;;;22.45;11.77;;;;;;;;;;4922348;28;20103;-78
2022/04/26 21:06:02;;;;;;;19.52;11.57;;;;;;;;;;4933795;28;20055;-78
2022/04/26 21:08:29;;;;;;;21.42;11.18;;;;;;;;;;4934289;28;20509;-79
2022/04/26 21:10:56;;;;;;;17.13;10.25;;;;;;;;;;4932203;28;20102;-80
2022/04/26 21:13:30;;;;;;;18.23;10.75;;;;;;;;;;4934765;28;20143;-80
2022/04/26 21:15:57;;;;;;;20.73;10.57;;;;;;;;;;4934951;28;20063;-79
2022/04/26 21:18:24;;;;;;;24.38;10.60;;;;;;;;;;4941428;28;20066;-80